sensor_id;sensor_type;location;lat;lon;timestamp;pressure;altitude;pressure_sealevel;temperature;humidity
69971;BME280;57301;50.328;8.542;2023-03-03T00:01:44;98863.72;;;-0.63;74.41
69971;BME280;57301;50.328;8.542;2023-03-03T00:04:11;98866.94;;;-0.75;75.27
69971;BME280;57301;50.328;8.542;2023-03-03T00:06:37;98870.69;;;-0.81;75.85
69971;BME280;57301;50.328;8.542;2023-03-03T00:09:04;98871.34;;;-0.76;75.15
69971;BME280;57301;50.328;8.542;2023-03-03T00:11:31;98875.84;;;-0.97;76.43
69971;BME280;57301;50.328;8.542;2023-03-03T00:13:57;98877.25;;;-0.90;76.17
69971;BME280;57301;50.328;8.542;2023-03-03T00:16:30;98876.41;;;-0.90;76.11
69971;BME280;57301;50.328;8.542;2023-03-03T00:18:57;98872.59;;;-1.02;77.31
69971;BME280;57301;50.328;8.542;2023-03-03T00:21:29;98878.75;;;-1.03;77.01
69971;BME280;57301;50.328;8.542;2023-03-03T00:24:14;98886.09;;;-1.11;79.47
69971;BME280;57301;50.328;8.542;2023-03-03T00:26:53;98878.66;;;-1.01;79.80
69971;BME280;57301;50.328;8.542;2023-03-03T00:32:17;98878.44;;;-0.97;78.80
69971;BME280;57301;50.328;8.542;2023-03-03T00:34:47;98879.38;;;-0.98;78.81
69971;BME280;57301;50.328;8.542;2023-03-03T00:40:22;98882.84;;;-1.16;81.08
69971;BME280;57301;50.328;8.542;2023-03-03T00:42:54;98889.91;;;-1.18;81.34
69971;BME280;57301;50.328;8.542;2023-03-03T00:45:42;98890.13;;;-1.23;82.11
69971;BME280;57301;50.328;8.542;2023-03-03T00:48:20;98879.50;;;-1.01;80.64
69971;BME280;57301;50.328;8.542;2023-03-03T00:50:47;98883.06;;;-1.21;81.16
69971;BME280;57301;50.328;8.542;2023-03-03T00:53:16;98884.88;;;-1.23;82.33
69971;BME280;57301;50.328;8.542;2023-03-03T00:55:44;98881.97;;;-1.17;81.96
69971;BME280;57301;50.328;8.542;2023-03-03T00:58:11;98885.19;;;-1.10;80.70
69971;BME280;57301;50.328;8.542;2023-03-03T01:00:38;98884.38;;;-1.12;80.53
69971;BME280;57301;50.328;8.542;2023-03-03T01:03:12;98887.72;;;-1.27;80.22
69971;BME280;57301;50.328;8.542;2023-03-03T01:05:40;98885.81;;;-1.24;78.86
69971;BME280;57301;50.328;8.542;2023-03-03T01:08:07;98889.91;;;-1.37;79.61
69971;BME280;57301;50.328;8.542;2023-03-03T01:10:38;98883.41;;;-1.28;79.71
69971;BME280;57301;50.328;8.542;2023-03-03T01:13:05;98886.31;;;-1.53;80.80
69971;BME280;57301;50.328;8.542;2023-03-03T01:15:33;98879.28;;;-1.72;82.02
69971;BME280;57301;50.328;8.542;2023-03-03T01:17:59;98879.84;;;-1.65;81.16
69971;BME280;57301;50.328;8.542;2023-03-03T01:20:26;98879.63;;;-1.60;80.26
69971;BME280;57301;50.328;8.542;2023-03-03T01:22:52;98880.63;;;-1.63;80.30
69971;BME280;57301;50.328;8.542;2023-03-03T01:25:19;98878.28;;;-1.69;81.46
69971;BME280;57301;50.328;8.542;2023-03-03T01:27:46;98873.97;;;-1.70;81.04
69971;BME280;57301;50.328;8.542;2023-03-03T01:30:13;98876.94;;;-1.78;81.50
69971;BME280;57301;50.328;8.542;2023-03-03T01:32:40;98875.38;;;-2.02;82.98
69971;BME280;57301;50.328;8.542;2023-03-03T01:35:07;98875.72;;;-1.90;82.18
69971;BME280;57301;50.328;8.542;2023-03-03T01:37:34;98872.38;;;-1.93;81.99
69971;BME280;57301;50.328;8.542;2023-03-03T01:40:02;98863.47;;;-1.89;81.37
69971;BME280;57301;50.328;8.542;2023-03-03T01:42:30;98859.53;;;-1.79;80.90
69971;BME280;57301;50.328;8.542;2023-03-03T01:45:41;98862.19;;;-1.99;82.07
69971;BME280;57301;50.328;8.542;2023-03-03T01:48:16;98879.00;;;-1.86;81.39
69971;BME280;57301;50.328;8.542;2023-03-03T01:50:48;98873.94;;;-1.89;81.77
69971;BME280;57301;50.328;8.542;2023-03-03T01:53:33;98869.22;;;-1.81;82.13
69971;BME280;57301;50.328;8.542;2023-03-03T01:56:01;98866.34;;;-2.16;84.89
69971;BME280;57301;50.328;8.542;2023-03-03T01:58:31;98863.16;;;-2.02;83.70
69971;BME280;57301;50.328;8.542;2023-03-03T02:01:08;98865.72;;;-2.00;83.96
69971;BME280;57301;50.328;8.542;2023-03-03T02:03:39;98874.25;;;-1.97;83.35
69971;BME280;57301;50.328;8.542;2023-03-03T02:06:09;98857.13;;;-2.04;83.04
69971;BME280;57301;50.328;8.542;2023-03-03T02:11:15;98864.53;;;-2.13;82.61
69971;BME280;57301;50.328;8.542;2023-03-03T02:13:42;98856.91;;;-2.18;82.11
69971;BME280;57301;50.328;8.542;2023-03-03T02:16:08;98859.69;;;-2.23;82.21
69971;BME280;57301;50.328;8.542;2023-03-03T02:18:35;98864.66;;;-2.17;81.92
69971;BME280;57301;50.328;8.542;2023-03-03T02:23:52;98863.56;;;-2.11;81.59
69971;BME280;57301;50.328;8.542;2023-03-03T02:26:23;98865.91;;;-2.25;82.11
69971;BME280;57301;50.328;8.542;2023-03-03T02:28:51;98873.75;;;-2.25;82.77
69971;BME280;57301;50.328;8.542;2023-03-03T02:31:21;98877.56;;;-2.34;82.70
69971;BME280;57301;50.328;8.542;2023-03-03T02:33:50;98873.41;;;-2.38;83.19
69971;BME280;57301;50.328;8.542;2023-03-03T02:36:22;98875.19;;;-2.38;83.56
69971;BME280;57301;50.328;8.542;2023-03-03T02:41:45;98871.16;;;-2.47;83.83
69971;BME280;57301;50.328;8.542;2023-03-03T02:44:16;98864.44;;;-2.53;85.40
69971;BME280;57301;50.328;8.542;2023-03-03T02:46:45;98867.19;;;-2.35;84.50
69971;BME280;57301;50.328;8.542;2023-03-03T02:49:15;98871.75;;;-2.40;83.68
69971;BME280;57301;50.328;8.542;2023-03-03T02:51:42;98868.38;;;-2.42;83.43
69971;BME280;57301;50.328;8.542;2023-03-03T02:54:11;98872.81;;;-2.45;83.34
69971;BME280;57301;50.328;8.542;2023-03-03T02:56:37;98880.78;;;-2.48;84.36
69971;BME280;57301;50.328;8.542;2023-03-03T02:59:05;98878.94;;;-2.46;83.98
69971;BME280;57301;50.328;8.542;2023-03-03T03:01:32;98878.59;;;-2.58;84.50
69971;BME280;57301;50.328;8.542;2023-03-03T03:04:06;98876.19;;;-2.63;84.06
69971;BME280;57301;50.328;8.542;2023-03-03T03:06:34;98881.03;;;-2.54;83.55
69971;BME280;57301;50.328;8.542;2023-03-03T03:09:01;98869.28;;;-2.64;84.73
69971;BME280;57301;50.328;8.542;2023-03-03T03:11:28;98862.47;;;-2.68;84.27
69971;BME280;57301;50.328;8.542;2023-03-03T03:13:55;98866.78;;;-2.67;84.79
69971;BME280;57301;50.328;8.542;2023-03-03T03:16:21;98874.69;;;-2.68;85.10
69971;BME280;57301;50.328;8.542;2023-03-03T03:18:48;98877.53;;;-2.75;85.17
69971;BME280;57301;50.328;8.542;2023-03-03T03:21:16;98878.56;;;-2.79;85.10
69971;BME280;57301;50.328;8.542;2023-03-03T03:23:42;98876.94;;;-2.81;85.60
69971;BME280;57301;50.328;8.542;2023-03-03T03:26:09;98876.88;;;-2.80;85.23
69971;BME280;57301;50.328;8.542;2023-03-03T03:28:36;98890.81;;;-2.81;84.73
69971;BME280;57301;50.328;8.542;2023-03-03T03:31:04;98888.28;;;-2.82;84.29
69971;BME280;57301;50.328;8.542;2023-03-03T03:33:31;98887.53;;;-2.86;84.07
69971;BME280;57301;50.328;8.542;2023-03-03T03:35:59;98894.75;;;-2.92;84.13
69971;BME280;57301;50.328;8.542;2023-03-03T03:38:27;98891.97;;;-2.88;83.73
69971;BME280;57301;50.328;8.542;2023-03-03T03:40:54;98892.16;;;-2.92;83.94
69971;BME280;57301;50.328;8.542;2023-03-03T03:43:21;98889.47;;;-2.91;84.21
69971;BME280;57301;50.328;8.542;2023-03-03T03:45:48;98881.88;;;-2.97;86.27
69971;BME280;57301;50.328;8.542;2023-03-03T03:48:15;98890.03;;;-3.05;88.08
69971;BME280;57301;50.328;8.542;2023-03-03T03:50:42;98882.88;;;-3.00;87.09
69971;BME280;57301;50.328;8.542;2023-03-03T03:53:09;98893.19;;;-2.97;87.41
69971;BME280;57301;50.328;8.542;2023-03-03T03:55:35;98894.88;;;-2.95;87.23
69971;BME280;57301;50.328;8.542;2023-03-03T03:58:02;98896.16;;;-2.84;86.66
69971;BME280;57301;50.328;8.542;2023-03-03T04:00:28;98891.72;;;-3.04;88.58
69971;BME280;57301;50.328;8.542;2023-03-03T04:02:55;98883.53;;;-3.16;90.01
69971;BME280;57301;50.328;8.542;2023-03-03T04:05:22;98887.28;;;-3.02;89.11
69971;BME280;57301;50.328;8.542;2023-03-03T04:07:48;98882.97;;;-3.03;87.94
69971;BME280;57301;50.328;8.542;2023-03-03T04:10:15;98887.00;;;-2.94;87.39
69971;BME280;57301;50.328;8.542;2023-03-03T04:12:43;98890.31;;;-2.90;86.15
69971;BME280;57301;50.328;8.542;2023-03-03T04:15:11;98892.16;;;-2.92;86.33
69971;BME280;57301;50.328;8.542;2023-03-03T04:17:38;98888.56;;;-2.90;85.73
69971;BME280;57301;50.328;8.542;2023-03-03T04:20:06;98896.47;;;-2.91;85.41
69971;BME280;57301;50.328;8.542;2023-03-03T04:22:33;98888.88;;;-2.98;84.97
69971;BME280;57301;50.328;8.542;2023-03-03T04:25:02;98888.88;;;-2.98;85.00
69971;BME280;57301;50.328;8.542;2023-03-03T04:27:34;98893.41;;;-3.03;84.88
69971;BME280;57301;50.328;8.542;2023-03-03T04:30:02;98889.19;;;-3.05;85.40
69971;BME280;57301;50.328;8.542;2023-03-03T04:32:29;98878.97;;;-3.11;85.61
69971;BME280;57301;50.328;8.542;2023-03-03T04:34:58;98883.34;;;-3.12;85.45
69971;BME280;57301;50.328;8.542;2023-03-03T04:37:33;98882.78;;;-3.20;85.99
69971;BME280;57301;50.328;8.542;2023-03-03T04:40:00;98888.00;;;-3.20;86.89
69971;BME280;57301;50.328;8.542;2023-03-03T04:42:26;98882.69;;;-3.17;86.16
69971;BME280;57301;50.328;8.542;2023-03-03T04:44:56;98889.34;;;-3.10;85.81
69971;BME280;57301;50.328;8.542;2023-03-03T04:47:22;98892.03;;;-3.11;85.32
69971;BME280;57301;50.328;8.542;2023-03-03T04:49:49;98903.63;;;-3.20;85.18
69971;BME280;57301;50.328;8.542;2023-03-03T04:52:15;98903.53;;;-3.17;85.42
69971;BME280;57301;50.328;8.542;2023-03-03T04:54:42;98902.16;;;-3.04;85.58
69971;BME280;57301;50.328;8.542;2023-03-03T04:57:08;98906.78;;;-2.88;85.82
69971;BME280;57301;50.328;8.542;2023-03-03T04:59:35;98908.28;;;-2.61;85.43
69971;BME280;57301;50.328;8.542;2023-03-03T05:02:02;98906.47;;;-2.59;84.04
69971;BME280;57301;50.328;8.542;2023-03-03T05:04:31;98904.94;;;-2.64;83.91
69971;BME280;57301;50.328;8.542;2023-03-03T05:06:57;98912.72;;;-2.63;83.55
69971;BME280;57301;50.328;8.542;2023-03-03T05:09:24;98913.50;;;-2.61;84.54
69971;BME280;57301;50.328;8.542;2023-03-03T05:11:50;98913.69;;;-2.44;84.62
69971;BME280;57301;50.328;8.542;2023-03-03T05:14:17;98913.84;;;-2.26;84.27
69971;BME280;57301;50.328;8.542;2023-03-03T05:16:44;98914.28;;;-2.17;83.92
69971;BME280;57301;50.328;8.542;2023-03-03T05:19:11;98906.59;;;-2.20;84.04
69971;BME280;57301;50.328;8.542;2023-03-03T05:21:37;98911.09;;;-2.23;84.03
69971;BME280;57301;50.328;8.542;2023-03-03T05:24:08;98907.00;;;-2.08;83.79
69971;BME280;57301;50.328;8.542;2023-03-03T05:26:35;98900.91;;;-2.09;84.12
69971;BME280;57301;50.328;8.542;2023-03-03T05:29:01;98914.25;;;-1.95;84.80
69971;BME280;57301;50.328;8.542;2023-03-03T05:31:28;98905.31;;;-1.89;85.24
69971;BME280;57301;50.328;8.542;2023-03-03T05:33:54;98909.19;;;-1.79;85.35
69971;BME280;57301;50.328;8.542;2023-03-03T05:36:21;98909.47;;;-1.65;85.72
69971;BME280;57301;50.328;8.542;2023-03-03T05:38:48;98908.13;;;-1.54;84.75
69971;BME280;57301;50.328;8.542;2023-03-03T05:41:14;98910.91;;;-1.39;84.61
69971;BME280;57301;50.328;8.542;2023-03-03T05:43:41;98922.59;;;-1.27;84.31
69971;BME280;57301;50.328;8.542;2023-03-03T05:46:07;98924.91;;;-1.21;83.02
69971;BME280;57301;50.328;8.542;2023-03-03T05:48:34;98916.44;;;-1.26;83.28
69971;BME280;57301;50.328;8.542;2023-03-03T05:51:00;98925.03;;;-1.24;83.33
69971;BME280;57301;50.328;8.542;2023-03-03T05:53:28;98931.47;;;-1.31;83.98
69971;BME280;57301;50.328;8.542;2023-03-03T05:55:54;98931.97;;;-1.23;83.93
69971;BME280;57301;50.328;8.542;2023-03-03T06:01:02;98938.41;;;-0.92;84.46
69971;BME280;57301;50.328;8.542;2023-03-03T06:03:29;98945.69;;;-0.99;85.38
69971;BME280;57301;50.328;8.542;2023-03-03T06:05:57;98947.97;;;-0.72;85.55
69971;BME280;57301;50.328;8.542;2023-03-03T06:08:23;98955.59;;;-0.68;86.37
69971;BME280;57301;50.328;8.542;2023-03-03T06:10:50;98954.59;;;-0.46;85.99
69971;BME280;57301;50.328;8.542;2023-03-03T06:13:16;98952.97;;;-0.49;86.63
69971;BME280;57301;50.328;8.542;2023-03-03T06:15:43;98960.38;;;-0.40;86.95
69971;BME280;57301;50.328;8.542;2023-03-03T06:18:09;98955.59;;;-0.32;87.13
69971;BME280;57301;50.328;8.542;2023-03-03T06:20:36;98966.34;;;-0.19;86.39
69971;BME280;57301;50.328;8.542;2023-03-03T06:23:04;98954.88;;;-0.16;85.80
69971;BME280;57301;50.328;8.542;2023-03-03T06:25:31;98960.75;;;-0.11;85.53
69971;BME280;57301;50.328;8.542;2023-03-03T06:28:01;98968.34;;;-0.07;85.94
69971;BME280;57301;50.328;8.542;2023-03-03T06:30:28;98968.34;;;-0.07;85.98
69971;BME280;57301;50.328;8.542;2023-03-03T06:32:55;98970.38;;;0.06;85.87
69971;BME280;57301;50.328;8.542;2023-03-03T06:35:22;98986.03;;;0.07;84.92
69971;BME280;57301;50.328;8.542;2023-03-03T06:37:49;98974.41;;;0.13;85.18
69971;BME280;57301;50.328;8.542;2023-03-03T06:40:16;98966.91;;;0.22;84.74
69971;BME280;57301;50.328;8.542;2023-03-03T06:42:42;98983.50;;;0.23;84.15
69971;BME280;57301;50.328;8.542;2023-03-03T06:45:09;98981.09;;;0.18;84.85
69971;BME280;57301;50.328;8.542;2023-03-03T06:47:36;98996.22;;;0.13;85.04
69971;BME280;57301;50.328;8.542;2023-03-03T06:50:02;98994.53;;;0.30;84.77
69971;BME280;57301;50.328;8.542;2023-03-03T06:52:29;98999.53;;;0.34;84.42
69971;BME280;57301;50.328;8.542;2023-03-03T06:54:58;99004.56;;;0.56;84.04
69971;BME280;57301;50.328;8.542;2023-03-03T06:57:31;99008.09;;;0.55;83.82
69971;BME280;57301;50.328;8.542;2023-03-03T07:00:15;99005.19;;;0.44;83.45
69971;BME280;57301;50.328;8.542;2023-03-03T07:02:42;99015.50;;;0.64;83.86
69971;BME280;57301;50.328;8.542;2023-03-03T07:05:14;99013.00;;;0.61;83.49
69971;BME280;57301;50.328;8.542;2023-03-03T07:07:41;99017.50;;;0.59;83.00
69971;BME280;57301;50.328;8.542;2023-03-03T07:10:22;99018.97;;;0.65;83.43
69971;BME280;57301;50.328;8.542;2023-03-03T07:12:49;99021.28;;;0.53;83.95
69971;BME280;57301;50.328;8.542;2023-03-03T07:15:20;99030.41;;;0.64;83.78
69971;BME280;57301;50.328;8.542;2023-03-03T07:17:51;99039.50;;;0.57;84.44
69971;BME280;57301;50.328;8.542;2023-03-03T07:20:22;99037.72;;;0.74;83.20
69971;BME280;57301;50.328;8.542;2023-03-03T07:22:50;99031.31;;;0.80;83.38
69971;BME280;57301;50.328;8.542;2023-03-03T07:25:20;99036.19;;;0.70;83.37
69971;BME280;57301;50.328;8.542;2023-03-03T07:27:47;99033.16;;;0.78;83.54
69971;BME280;57301;50.328;8.542;2023-03-03T07:30:27;99044.97;;;0.69;83.88
69971;BME280;57301;50.328;8.542;2023-03-03T07:32:57;99040.50;;;0.71;84.38
69971;BME280;57301;50.328;8.542;2023-03-03T07:40:46;99061.25;;;0.93;83.30
69971;BME280;57301;50.328;8.542;2023-03-03T07:43:28;99056.84;;;0.94;83.70
69971;BME280;57301;50.328;8.542;2023-03-03T07:46:15;99055.50;;;1.02;83.15
69971;BME280;57301;50.328;8.542;2023-03-03T07:48:47;99049.28;;;1.21;82.69
69971;BME280;57301;50.328;8.542;2023-03-03T07:53:43;99057.25;;;1.19;82.69
69971;BME280;57301;50.328;8.542;2023-03-03T07:56:34;99055.31;;;1.23;82.49
69971;BME280;57301;50.328;8.542;2023-03-03T07:59:15;99060.31;;;1.27;82.45
69971;BME280;57301;50.328;8.542;2023-03-03T08:01:45;99073.91;;;1.36;81.96
69971;BME280;57301;50.328;8.542;2023-03-03T08:04:18;99071.34;;;1.34;81.75
69971;BME280;57301;50.328;8.542;2023-03-03T08:06:51;99068.38;;;1.40;81.73
69971;BME280;57301;50.328;8.542;2023-03-03T08:11:54;99071.72;;;1.44;81.07
69971;BME280;57301;50.328;8.542;2023-03-03T08:14:29;99060.88;;;1.50;80.96
69971;BME280;57301;50.328;8.542;2023-03-03T08:16:57;99068.91;;;1.47;81.03
69971;BME280;57301;50.328;8.542;2023-03-03T08:19:29;99061.19;;;1.59;80.18
69971;BME280;57301;50.328;8.542;2023-03-03T08:22:08;99059.16;;;1.65;80.24
69971;BME280;57301;50.328;8.542;2023-03-03T08:24:35;99064.75;;;1.58;79.79
69971;BME280;57301;50.328;8.542;2023-03-03T08:27:03;99061.03;;;1.63;80.12
69971;BME280;57301;50.328;8.542;2023-03-03T08:29:30;99065.44;;;1.78;78.96
69971;BME280;57301;50.328;8.542;2023-03-03T08:31:56;99068.59;;;1.84;78.30
69971;BME280;57301;50.328;8.542;2023-03-03T08:34:23;99069.38;;;1.86;78.58
69971;BME280;57301;50.328;8.542;2023-03-03T08:36:50;99072.16;;;1.83;78.18
69971;BME280;57301;50.328;8.542;2023-03-03T08:39:16;99060.78;;;1.83;77.58
69971;BME280;57301;50.328;8.542;2023-03-03T08:41:43;99065.44;;;2.09;76.55
69971;BME280;57301;50.328;8.542;2023-03-03T08:44:09;99068.94;;;2.10;76.35
69971;BME280;57301;50.328;8.542;2023-03-03T08:46:36;99068.03;;;2.25;75.52
69971;BME280;57301;50.328;8.542;2023-03-03T08:49:03;99074.66;;;2.32;75.05
69971;BME280;57301;50.328;8.542;2023-03-03T08:51:29;99063.72;;;2.40;73.59
69971;BME280;57301;50.328;8.542;2023-03-03T08:53:56;99065.56;;;2.38;73.83
69971;BME280;57301;50.328;8.542;2023-03-03T08:56:22;99064.91;;;2.34;73.29
69971;BME280;57301;50.328;8.542;2023-03-03T08:58:49;99072.16;;;2.45;72.95
69971;BME280;57301;50.328;8.542;2023-03-03T09:01:27;99080.84;;;2.77;72.43
69971;BME280;57301;50.328;8.542;2023-03-03T09:03:54;99088.97;;;3.03;72.10
69971;BME280;57301;50.328;8.542;2023-03-03T09:06:20;99085.59;;;3.43;70.99
69971;BME280;57301;50.328;8.542;2023-03-03T09:08:47;99088.22;;;3.72;69.68
69971;BME280;57301;50.328;8.542;2023-03-03T09:11:20;99080.25;;;4.27;67.34
69971;BME280;57301;50.328;8.542;2023-03-03T09:13:49;99081.78;;;4.84;66.60
69971;BME280;57301;50.328;8.542;2023-03-03T09:16:18;99070.72;;;5.04;64.55
69971;BME280;57301;50.328;8.542;2023-03-03T09:18:47;99080.88;;;5.10;64.29
69971;BME280;57301;50.328;8.542;2023-03-03T09:21:21;99080.13;;;4.96;62.96
69971;BME280;57301;50.328;8.542;2023-03-03T09:23:53;99089.44;;;5.01;63.80
69971;BME280;57301;50.328;8.542;2023-03-03T09:26:25;99085.63;;;5.56;62.50
69971;BME280;57301;50.328;8.542;2023-03-03T09:28:55;99089.00;;;5.46;61.55
69971;BME280;57301;50.328;8.542;2023-03-03T09:31:37;99088.16;;;4.94;63.07
69971;BME280;57301;50.328;8.542;2023-03-03T09:34:19;99099.53;;;4.69;63.33
69971;BME280;57301;50.328;8.542;2023-03-03T09:36:48;99097.63;;;4.17;65.76
69971;BME280;57301;50.328;8.542;2023-03-03T09:39:29;99099.81;;;4.11;66.33
69971;BME280;57301;50.328;8.542;2023-03-03T09:44:44;99097.25;;;4.23;66.50
69971;BME280;57301;50.328;8.542;2023-03-03T09:47:35;99095.97;;;4.43;64.66
69971;BME280;57301;50.328;8.542;2023-03-03T10:01:12;99117.47;;;5.04;62.93
69971;BME280;57301;50.328;8.542;2023-03-03T10:06:41;99122.09;;;5.77;59.81
69971;BME280;57301;50.328;8.542;2023-03-03T10:12:27;99132.94;;;5.48;59.52
69971;BME280;57301;50.328;8.542;2023-03-03T10:15:20;99137.38;;;5.22;60.97
69971;BME280;57301;50.328;8.542;2023-03-03T10:18:00;99145.38;;;5.08;61.67
69971;BME280;57301;50.328;8.542;2023-03-03T10:23:20;99155.91;;;4.55;63.47
69971;BME280;57301;50.328;8.542;2023-03-03T10:26:07;99158.38;;;4.71;63.70
69971;BME280;57301;50.328;8.542;2023-03-03T10:40:15;99166.03;;;5.28;61.42
69971;BME280;57301;50.328;8.542;2023-03-03T10:45:44;99166.66;;;5.45;61.21
69971;BME280;57301;50.328;8.542;2023-03-03T10:48:28;99161.66;;;5.27;60.69
69971;BME280;57301;50.328;8.542;2023-03-03T10:51:30;99166.06;;;5.01;62.62
69971;BME280;57301;50.328;8.542;2023-03-03T10:54:08;99162.25;;;4.93;60.98
69971;BME280;57301;50.328;8.542;2023-03-03T10:56:56;99156.28;;;4.76;61.86
69971;BME280;57301;50.328;8.542;2023-03-03T11:02:27;99148.13;;;5.83;59.72
69971;BME280;57301;50.328;8.542;2023-03-03T11:10:29;99154.31;;;6.81;56.21
69971;BME280;57301;50.328;8.542;2023-03-03T11:13:09;99159.97;;;7.00;56.20
69971;BME280;57301;50.328;8.542;2023-03-03T11:31:47;99112.81;;;16.17;33.85
69971;BME280;57301;50.328;8.542;2023-03-03T11:37:05;99115.28;;;16.65;32.24
69971;BME280;57301;50.328;8.542;2023-03-03T11:39:33;99108.34;;;16.40;32.48
69971;BME280;57301;50.328;8.542;2023-03-03T11:42:26;99107.91;;;15.65;33.52
69971;BME280;57301;50.328;8.542;2023-03-03T11:45:02;99102.09;;;16.48;33.23
69971;BME280;57301;50.328;8.542;2023-03-03T11:47:40;99092.53;;;16.68;32.60
69971;BME280;57301;50.328;8.542;2023-03-03T11:50:20;99100.28;;;17.17;31.83
69971;BME280;57301;50.328;8.542;2023-03-03T11:52:52;99097.59;;;17.92;30.98
69971;BME280;57301;50.328;8.542;2023-03-03T11:55:35;99098.88;;;17.82;30.68
69971;BME280;57301;50.328;8.542;2023-03-03T12:01:15;99086.19;;;18.26;29.37
69971;BME280;57301;50.328;8.542;2023-03-03T12:03:48;99083.41;;;17.00;32.46
69971;BME280;57301;50.328;8.542;2023-03-03T12:12:13;99070.47;;;18.15;29.80
69971;BME280;57301;50.328;8.542;2023-03-03T12:15:01;99073.41;;;18.86;28.84
69971;BME280;57301;50.328;8.542;2023-03-03T12:20:37;99061.91;;;19.27;27.42
69971;BME280;57301;50.328;8.542;2023-03-03T12:28:37;99044.63;;;20.25;27.11
69971;BME280;57301;50.328;8.542;2023-03-03T12:31:11;99043.41;;;20.34;26.29
69971;BME280;57301;50.328;8.542;2023-03-03T12:45:21;99028.25;;;19.08;27.42
69971;BME280;57301;50.328;8.542;2023-03-03T12:47:52;99027.88;;;19.11;28.29
69971;BME280;57301;50.328;8.542;2023-03-03T12:55:59;99016.13;;;20.43;25.93
69971;BME280;57301;50.328;8.542;2023-03-03T12:58:38;99011.06;;;21.40;25.36
69971;BME280;57301;50.328;8.542;2023-03-03T13:03:57;99009.47;;;19.21;27.16
69971;BME280;57301;50.328;8.542;2023-03-03T13:12:06;99001.88;;;21.08;24.63
69971;BME280;57301;50.328;8.542;2023-03-03T13:14:57;98997.28;;;21.02;24.68
69971;BME280;57301;50.328;8.542;2023-03-03T13:20:14;98994.03;;;21.91;24.46
69971;BME280;57301;50.328;8.542;2023-03-03T13:23:09;98995.47;;;21.94;23.97
69971;BME280;57301;50.328;8.542;2023-03-03T13:25:45;98993.63;;;21.88;24.82
69971;BME280;57301;50.328;8.542;2023-03-03T13:31:28;98982.63;;;22.59;23.21
69971;BME280;57301;50.328;8.542;2023-03-03T13:33:58;98991.88;;;22.90;23.74
69971;BME280;57301;50.328;8.542;2023-03-03T13:36:30;98982.78;;;23.46;22.20
69971;BME280;57301;50.328;8.542;2023-03-03T13:39:04;98983.63;;;23.21;22.25
69971;BME280;57301;50.328;8.542;2023-03-03T13:41:43;98981.97;;;22.64;22.97
69971;BME280;57301;50.328;8.542;2023-03-03T13:44:32;98975.66;;;23.26;21.93
69971;BME280;57301;50.328;8.542;2023-03-03T13:47:12;98979.28;;;23.57;21.74
69971;BME280;57301;50.328;8.542;2023-03-03T13:50:03;98975.88;;;23.43;22.00
69971;BME280;57301;50.328;8.542;2023-03-03T13:55:28;98967.09;;;23.66;22.00
69971;BME280;57301;50.328;8.542;2023-03-03T14:01:05;98960.75;;;24.39;21.15
69971;BME280;57301;50.328;8.542;2023-03-03T14:06:26;98959.56;;;23.98;21.06
69971;BME280;57301;50.328;8.542;2023-03-03T14:11:45;98953.44;;;23.48;21.17
69971;BME280;57301;50.328;8.542;2023-03-03T14:14:19;98965.22;;;24.15;21.13
69971;BME280;57301;50.328;8.542;2023-03-03T14:16:56;98954.28;;;24.03;20.91
69971;BME280;57301;50.328;8.542;2023-03-03T14:19:31;98958.00;;;23.91;20.86
69971;BME280;57301;50.328;8.542;2023-03-03T14:25:08;98958.25;;;22.77;21.77
69971;BME280;57301;50.328;8.542;2023-03-03T14:27:39;98955.31;;;23.47;20.88
69971;BME280;57301;50.328;8.542;2023-03-03T14:30:27;98955.59;;;23.82;21.04
69971;BME280;57301;50.328;8.542;2023-03-03T14:35:41;98958.66;;;20.47;24.58
69971;BME280;57301;50.328;8.542;2023-03-03T14:38:17;98960.47;;;18.03;26.95
69971;BME280;57301;50.328;8.542;2023-03-03T14:40:46;98963.03;;;16.09;30.05
69971;BME280;57301;50.328;8.542;2023-03-03T14:43:34;98967.03;;;15.26;32.78
69971;BME280;57301;50.328;8.542;2023-03-03T14:46:30;98967.47;;;14.74;32.88
69971;BME280;57301;50.328;8.542;2023-03-03T14:49:00;98968.16;;;13.43;36.40
69971;BME280;57301;50.328;8.542;2023-03-03T14:51:33;98964.22;;;12.77;37.53
69971;BME280;57301;50.328;8.542;2023-03-03T14:54:08;98969.44;;;12.07;38.59
69971;BME280;57301;50.328;8.542;2023-03-03T15:00:00;98964.25;;;10.67;40.36
69971;BME280;57301;50.328;8.542;2023-03-03T15:02:39;98965.66;;;10.61;40.00
69971;BME280;57301;50.328;8.542;2023-03-03T15:05:24;98958.25;;;10.45;40.71
69971;BME280;57301;50.328;8.542;2023-03-03T15:10:30;98969.09;;;9.65;42.23
69971;BME280;57301;50.328;8.542;2023-03-03T15:12:57;98951.25;;;9.46;43.18
69971;BME280;57301;50.328;8.542;2023-03-03T15:15:25;98963.06;;;9.23;43.36
69971;BME280;57301;50.328;8.542;2023-03-03T15:17:53;98961.38;;;8.91;43.41
69971;BME280;57301;50.328;8.542;2023-03-03T15:20:44;98963.34;;;8.47;45.33
69971;BME280;57301;50.328;8.542;2023-03-03T15:28:42;98956.00;;;8.28;46.99
69971;BME280;57301;50.328;8.542;2023-03-03T15:33:54;98960.63;;;7.94;47.93
69971;BME280;57301;50.328;8.542;2023-03-03T15:36:43;98963.47;;;8.02;47.91
69971;BME280;57301;50.328;8.542;2023-03-03T15:42:06;98962.81;;;7.78;48.12
69971;BME280;57301;50.328;8.542;2023-03-03T16:01:20;98964.09;;;7.40;50.44
69971;BME280;57301;50.328;8.542;2023-03-03T16:03:56;98962.28;;;7.41;51.17
69971;BME280;57301;50.328;8.542;2023-03-03T16:06:46;98963.38;;;7.27;51.09
69971;BME280;57301;50.328;8.542;2023-03-03T16:09:59;98970.50;;;7.15;51.89
69971;BME280;57301;50.328;8.542;2023-03-03T16:12:11;98970.16;;;7.20;52.52
69971;BME280;57301;50.328;8.542;2023-03-03T16:14:51;98969.53;;;7.05;52.90
69971;BME280;57301;50.328;8.542;2023-03-03T16:17:41;98965.66;;;6.87;52.62
69971;BME280;57301;50.328;8.542;2023-03-03T16:20:21;98967.66;;;6.61;53.12
69971;BME280;57301;50.328;8.542;2023-03-03T16:31:56;98982.84;;;6.24;54.94
69971;BME280;57301;50.328;8.542;2023-03-03T16:34:30;98979.88;;;6.04;55.68
69971;BME280;57301;50.328;8.542;2023-03-03T16:39:42;98977.69;;;5.61;57.02
69971;BME280;57301;50.328;8.542;2023-03-03T16:42:34;98983.72;;;5.51;57.89
69971;BME280;57301;50.328;8.542;2023-03-03T16:45:28;98988.66;;;5.31;58.16
69971;BME280;57301;50.328;8.542;2023-03-03T16:55:31;99005.69;;;5.02;58.71
69971;BME280;57301;50.328;8.542;2023-03-03T17:01:34;98997.34;;;4.57;61.02
69971;BME280;57301;50.328;8.542;2023-03-03T17:04:14;99012.75;;;4.50;60.67